Time;durP1;ratioP1;P1;durP2;ratioP2;P2;SDS_P1;SDS_P2;PMS_P1;PMS_P2;Temp;Humidity;BMP_temperature;BMP_pressure;BME280_temperature;BME280_humidity;BME280_pressure;Samples;Min_cycle;Max_cycle;Signal;HPM_P1;HPM_P2
2022/02/23 06:18:59;;;;;;;35.10;5.10;;;;;;;;;;5538553;23;20084;-85
2022/02/23 06:21:26;;;;;;;35.67;4.88;;;;;;;;;;4910910;29;20056;-87
2022/02/23 06:23:53;;;;;;;22.25;3.90;;;;;;;;;;4914394;29;20136;-87
2022/02/23 06:26:23;;;;;;;27.45;4.85;;;;;;;;;;4914299;29;20131;-87
2022/02/23 06:28:50;;;;;;;28.33;4.97;;;;;;;;;;4914992;29;20131;-86
2022/02/23 06:31:17;;;;;;;28.08;4.78;;;;;;;;;;4914102;29;20048;-87
2022/02/23 06:33:46;;;;;;;31.85;4.80;;;;;;;;;;4913721;29;20585;-86
2022/02/23 06:36:13;;;;;;;;;;;;;;;;;;4913808;29;20552;-86
2022/02/23 06:38:41;;;;;;;30.48;3.55;;;;;;;;;;4899491;29;20447;-86
2022/02/23 06:41:11;;;;;;;35.00;4.40;;;;;;;;;;4913761;29;20107;-85
2022/02/23 06:43:39;;;;;;;25.95;4.03;;;;;;;;;;4912867;29;20576;-86
2022/02/23 06:46:06;;;;;;;31.20;4.40;;;;;;;;;;4907912;29;20052;-85
2022/02/23 06:48:33;;;;;;;28.63;4.47;;;;;;;;;;4896378;29;20107;-86
2022/02/23 06:51:00;;;;;;;27.77;4.10;;;;;;;;;;4912716;29;20532;-86
2022/02/23 06:53:27;;;;;;;23.17;3.85;;;;;;;;;;4915138;29;20058;-87
2022/02/23 06:55:53;;;;;;;29.70;3.58;;;;;;;;;;4912929;29;20059;-86
2022/02/23 06:58:21;;;;;;;30.73;4.07;;;;;;;;;;4911021;29;20129;-86
2022/02/23 07:00:47;;;;;;;25.95;4.38;;;;;;;;;;4912964;29;20060;-86
2022/02/23 07:03:14;;;;;;;25.90;4.53;;;;;;;;;;4913028;29;20048;-86
2022/02/23 07:05:41;;;;;;;24.88;4.00;;;;;;;;;;4914550;29;20055;-87
2022/02/23 07:08:09;;;;;;;31.77;4.47;;;;;;;;;;4912965;29;20079;-86
2022/02/23 07:10:37;;;;;;;44.03;4.93;;;;;;;;;;4913705;29;20048;-87
2022/02/23 07:13:09;;;;;;;43.17;4.28;;;;;;;;;;4898749;29;20131;-87
2022/02/23 07:15:36;;;;;;;25.83;4.05;;;;;;;;;;4913388;29;20505;-86
2022/02/23 07:18:04;;;;;;;19.67;2.92;;;;;;;;;;4914102;29;20593;-87
2022/02/23 07:20:31;;;;;;;28.00;3.05;;;;;;;;;;4896753;29;20416;-86
2022/02/23 07:22:57;;;;;;;27.67;3.92;;;;;;;;;;4877249;29;20096;-87
2022/02/23 07:25:24;;;;;;;25.73;4.15;;;;;;;;;;4894829;29;20040;-87
2022/02/23 07:27:51;;;;;;;28.02;4.30;;;;;;;;;;4895806;29;20052;-87
2022/02/23 07:30:17;;;;;;;26.15;3.40;;;;;;;;;;4894348;29;20049;-87
2022/02/23 07:32:48;;;;;;;33.28;5.13;;;;;;;;;;4895618;29;20064;-85
2022/02/23 07:35:15;;;;;;;23.35;4.38;;;;;;;;;;4891911;29;20557;-85
2022/02/23 07:37:44;;;;;;;27.17;4.00;;;;;;;;;;4891718;29;20478;-85
2022/02/23 07:40:16;;;;;;;30.70;3.70;;;;;;;;;;4891206;29;20117;-85
2022/02/23 07:43:04;;;;;;;21.33;3.50;;;;;;;;;;4894416;29;20060;-86
2022/02/23 07:45:36;;;;;;;23.45;3.67;;;;;;;;;;4892943;29;20045;-85
2022/02/23 07:48:04;;;;;;;27.60;3.50;;;;;;;;;;4894741;29;20053;-85
2022/02/23 07:50:32;;;;;;;30.07;5.00;;;;;;;;;;4877898;29;20040;-85
2022/02/23 07:52:59;;;;;;;25.92;3.60;;;;;;;;;;4892999;29;20052;-85
2022/02/23 07:55:26;;;;;;;27.33;4.20;;;;;;;;;;4892078;29;20104;-85
2022/02/23 07:57:53;;;;;;;26.25;3.80;;;;;;;;;;4892622;29;20561;-85
2022/02/23 08:00:22;;;;;;;29.65;4.28;;;;;;;;;;4892157;29;20060;-85
2022/02/23 08:02:50;;;;;;;20.13;3.92;;;;;;;;;;4895184;29;20124;-84
2022/02/23 08:05:16;;;;;;;21.63;3.95;;;;;;;;;;4892814;29;20044;-82
2022/02/23 08:07:46;;;;;;;24.88;3.92;;;;;;;;;;4876489;29;20527;-82
2022/02/23 08:10:13;;;;;;;17.08;3.50;;;;;;;;;;4885884;29;20045;-83
2022/02/23 08:12:40;;;;;;;26.90;4.25;;;;;;;;;;4892504;29;20068;-83
2022/02/23 08:20:41;;;;;;;21.65;3.50;;;;;;;;;;4894633;29;20163;-82
2022/02/23 08:23:11;;;;;;;26.88;4.88;;;;;;;;;;4888230;29;20045;-85
2022/02/23 08:25:39;;;;;;;33.25;7.72;;;;;;;;;;4886062;29;20432;-85
2022/02/23 08:28:06;;;;;;;36.70;8.40;;;;;;;;;;4877286;29;20053;-84
2022/02/23 08:30:34;;;;;;;24.45;5.95;;;;;;;;;;4881780;29;20284;-84
2022/02/23 08:33:03;;;;;;;37.75;6.20;;;;;;;;;;4889227;29;20064;-84
2022/02/23 08:35:42;;;;;;;25.90;5.68;;;;;;;;;;4890595;29;20057;-84
2022/02/23 08:38:12;;;;;;;33.42;6.93;;;;;;;;;;4889739;29;20057;-86
2022/02/23 08:40:44;;;;;;;36.10;7.80;;;;;;;;;;4873575;29;20576;-84
2022/02/23 08:43:12;;;;;;;34.45;7.20;;;;;;;;;;4886848;29;20064;-84
2022/02/23 08:45:41;;;;;;;30.33;7.50;;;;;;;;;;4883577;29;20044;-85
2022/02/23 08:48:09;;;;;;;30.85;7.35;;;;;;;;;;4891969;29;20063;-84
2022/02/23 08:50:36;;;;;;;29.65;7.82;;;;;;;;;;4877897;29;20470;-84
2022/02/23 08:53:04;;;;;;;34.72;7.30;;;;;;;;;;4877234;29;20054;-84
2022/02/23 08:55:30;;;;;;;27.60;6.93;;;;;;;;;;4894162;29;20300;-84
2022/02/23 08:58:01;;;;;;;30.23;6.90;;;;;;;;;;4893992;29;20389;-84
2022/02/23 09:00:27;;;;;;;;;;;;;;;;;;4894446;29;20510;-86
2022/02/23 09:02:54;;;;;;;33.50;6.25;;;;;;;;;;4894351;29;19959;-84
2022/02/23 09:05:21;;;;;;;26.92;5.70;;;;;;;;;;4892777;29;20044;-84
2022/02/23 09:07:48;;;;;;;34.65;6.20;;;;;;;;;;4880646;29;20798;-83
2022/02/23 09:10:15;;;;;;;33.47;5.07;;;;;;;;;;4893571;29;20046;-84
2022/02/23 09:12:43;;;;;;;33.80;5.65;;;;;;;;;;4893594;29;20057;-84
2022/02/23 09:15:12;;;;;;;;;;;;;;;;;;4877046;29;20054;-85
2022/02/23 09:17:41;;;;;;;24.83;5.10;;;;;;;;;;4894250;29;19967;-84
2022/02/23 09:20:08;;;;;;;28.92;5.35;;;;;;;;;;4864887;29;20213;-83
2022/02/23 09:22:35;;;;;;;29.98;5.82;;;;;;;;;;4893421;29;20538;-83
2022/02/23 09:25:05;;;;;;;34.05;6.38;;;;;;;;;;4892139;29;20552;-84
2022/02/23 09:27:32;;;;;;;27.25;5.80;;;;;;;;;;4893846;29;20059;-83
2022/02/23 09:29:58;;;;;;;33.47;5.88;;;;;;;;;;4893116;29;20096;-84
2022/02/23 09:32:25;;;;;;;38.33;5.72;;;;;;;;;;4893640;29;20146;-84
2022/02/23 09:34:52;;;;;;;31.58;5.47;;;;;;;;;;4893283;29;20087;-83
2022/02/23 09:37:19;;;;;;;28.67;5.90;;;;;;;;;;4893271;29;20051;-84
2022/02/23 09:39:45;;;;;;;34.95;6.50;;;;;;;;;;4893628;29;20111;-84
2022/02/23 09:42:12;;;;;;;35.53;6.05;;;;;;;;;;4893166;29;20512;-85
2022/02/23 09:44:41;;;;;;;32.33;7.40;;;;;;;;;;4893867;29;20521;-83
2022/02/23 09:47:16;;;;;;;42.45;7.82;;;;;;;;;;4893029;29;20398;-84
2022/02/23 09:49:45;;;;;;;31.63;6.95;;;;;;;;;;4893009;29;20072;-84
2022/02/23 09:52:12;;;;;;;44.80;7.05;;;;;;;;;;4892898;29;20049;-84
2022/02/23 09:54:39;;;;;;;31.00;6.05;;;;;;;;;;4892312;29;20509;-85
2022/02/23 09:57:05;;;;;;;36.83;6.68;;;;;;;;;;4892914;29;20474;-84
2022/02/23 09:59:32;;;;;;;31.73;5.65;;;;;;;;;;4893165;29;20092;-86
2022/02/23 10:02:00;;;;;;;32.05;5.93;;;;;;;;;;4891689;29;20100;-85
2022/02/23 10:04:27;;;;;;;30.23;5.63;;;;;;;;;;4892680;29;20052;-85
2022/02/23 10:07:00;;;;;;;28.98;5.32;;;;;;;;;;4893015;29;20433;-85
2022/02/23 10:09:26;;;;;;;27.10;6.18;;;;;;;;;;4892382;29;20116;-85
2022/02/23 10:11:53;;;;;;;34.47;6.65;;;;;;;;;;4893526;29;20082;-84
2022/02/23 10:14:20;;;;;;;30.25;6.25;;;;;;;;;;4892457;29;20064;-83
2022/02/23 10:16:47;;;;;;;36.58;7.30;;;;;;;;;;4892186;29;20057;-83
2022/02/23 10:19:22;;;;;;;27.90;6.78;;;;;;;;;;4898490;29;20052;-83
2022/02/23 10:22:00;;;;;;;30.42;6.75;;;;;;;;;;4903407;29;20131;-82
2022/02/23 10:24:29;;;;;;;25.77;6.75;;;;;;;;;;4877729;29;20103;-84
2022/02/23 10:27:03;;;;;;;35.83;7.63;;;;;;;;;;4892977;29;20055;-82
2022/02/23 10:29:50;;;;;;;34.00;6.47;;;;;;;;;;4903668;29;20584;-83
2022/02/23 10:32:17;;;;;;;27.70;6.85;;;;;;;;;;4892415;29;20532;-82
2022/02/23 10:34:46;;;;;;;32.22;7.18;;;;;;;;;;4892313;29;20081;-82
2022/02/23 10:37:23;;;;;;;25.40;6.50;;;;;;;;;;4892307;29;20462;-82
2022/02/23 10:39:51;;;;;;;28.05;7.30;;;;;;;;;;4892663;29;20095;-83
2022/02/23 10:42:24;;;;;;;;;;;;;;;;;;4892421;29;20049;-83
2022/02/23 10:44:53;;;;;;;23.23;4.95;;;;;;;;;;4892692;29;19927;-84
2022/02/23 10:47:20;;;;;;;31.35;5.65;;;;;;;;;;4903940;29;20044;-82
2022/02/23 10:50:10;;;;;;;31.75;5.88;;;;;;;;;;4893413;29;20056;-84
2022/02/23 10:52:41;;;;;;;25.70;5.47;;;;;;;;;;4888537;29;20072;-83
2022/02/23 10:55:11;;;;;;;23.42;5.50;;;;;;;;;;4894099;29;20072;-84
2022/02/23 10:57:46;;;;;;;29.27;5.15;;;;;;;;;;4905357;29;20374;-85
2022/02/23 11:00:15;;;;;;;29.77;4.18;;;;;;;;;;4907022;29;20477;-85
2022/02/23 11:02:42;;;;;;;25.25;5.28;;;;;;;;;;4892863;29;20478;-86
2022/02/23 11:05:09;;;;;;;27.50;5.45;;;;;;;;;;4901183;29;20486;-85
2022/02/23 11:07:36;;;;;;;32.08;5.95;;;;;;;;;;4896262;29;20052;-85
2022/02/23 11:10:03;;;;;;;29.95;7.38;;;;;;;;;;4890979;29;20107;-84
2022/02/23 11:12:31;;;;;;;35.47;7.22;;;;;;;;;;4891848;29;20136;-85
2022/02/23 11:14:58;;;;;;;28.42;6.18;;;;;;;;;;4906364;29;20055;-84
2022/02/23 11:17:25;;;;;;;27.25;6.80;;;;;;;;;;4876751;29;20073;-84
2022/02/23 11:19:53;;;;;;;24.48;6.53;;;;;;;;;;4902645;29;20076;-85
2022/02/23 11:22:20;;;;;;;29.58;7.32;;;;;;;;;;4901401;29;20423;-86
2022/02/23 11:24:47;;;;;;;34.15;7.68;;;;;;;;;;4902487;29;20088;-85
2022/02/23 11:27:20;;;;;;;31.52;6.53;;;;;;;;;;4891233;29;20087;-89
2022/02/23 11:30:05;;;;;;;34.15;7.30;;;;;;;;;;4896137;29;20056;-89
2022/02/23 11:32:38;;;;;;;34.85;7.32;;;;;;;;;;4904099;29;20111;-87
2022/02/23 11:35:07;;;;;;;27.35;5.63;;;;;;;;;;4896330;29;20052;-85
2022/02/23 11:37:34;;;;;;;30.38;5.40;;;;;;;;;;4891893;29;20048;-87
2022/02/23 11:40:02;;;;;;;26.88;5.45;;;;;;;;;;4898034;29;20060;-87
2022/02/23 11:42:33;;;;;;;26.23;5.35;;;;;;;;;;4875986;29;20049;-85
2022/02/23 11:45:13;;;;;;;19.77;3.53;;;;;;;;;;4908176;29;20060;-86
2022/02/23 11:47:49;;;;;;;31.13;5.55;;;;;;;;;;4891812;29;20084;-84
2022/02/23 11:50:21;;;;;;;19.77;4.00;;;;;;;;;;4897532;29;20075;-86
2022/02/23 11:52:50;;;;;;;27.98;4.25;;;;;;;;;;4901733;29;20611;-86
2022/02/23 11:55:18;;;;;;;;;;;;;;;;;;4901149;29;20052;-85
2022/02/23 11:57:53;;;;;;;23.50;3.60;;;;;;;;;;4893934;29;19969;-87
2022/02/23 12:00:43;;;;;;;28.25;3.50;;;;;;;;;;4892364;29;20581;-85
2022/02/23 12:03:20;;;;;;;31.15;5.32;;;;;;;;;;4896213;29;20049;-85
2022/02/23 12:06:03;;;;;;;25.73;4.88;;;;;;;;;;4890276;29;20138;-84
2022/02/23 12:08:32;;;;;;;29.67;3.85;;;;;;;;;;4894466;29;20048;-85
2022/02/23 12:11:05;;;;;;;24.63;4.25;;;;;;;;;;4890143;29;20063;-85
2022/02/23 12:13:38;;;;;;;23.13;4.15;;;;;;;;;;4896253;29;20044;-85
2022/02/23 12:16:26;;;;;;;29.13;4.72;;;;;;;;;;4899684;29;20478;-84
2022/02/23 12:18:58;;;;;;;23.30;3.92;;;;;;;;;;4893571;29;20060;-84
2022/02/23 12:21:47;;;;;;;21.35;3.33;;;;;;;;;;4878630;29;20801;-85
2022/02/23 12:24:23;;;;;;;17.88;2.80;;;;;;;;;;4900191;29;20052;-82
2022/02/23 12:26:53;;;;;;;15.82;2.42;;;;;;;;;;4891757;29;20521;-83
2022/02/23 12:29:27;;;;;;;16.60;2.80;;;;;;;;;;4892488;29;20044;-82
2022/02/23 12:31:59;;;;;;;11.50;2.15;;;;;;;;;;4891448;29;20146;-83
2022/02/23 12:34:25;;;;;;;13.25;2.20;;;;;;;;;;4891452;29;20129;-83
2022/02/23 12:37:12;;;;;;;16.67;2.50;;;;;;;;;;4888533;29;20053;-83
2022/02/23 12:39:43;;;;;;;14.77;3.17;;;;;;;;;;4891256;29;20166;-83
2022/02/23 12:42:11;;;;;;;15.68;2.80;;;;;;;;;;4891856;29;20064;-82
2022/02/23 12:44:38;;;;;;;15.30;2.45;;;;;;;;;;4892477;29;20044;-83
2022/02/23 12:47:09;;;;;;;19.67;2.72;;;;;;;;;;4890462;29;20437;-82
2022/02/23 12:49:36;;;;;;;18.23;3.17;;;;;;;;;;4897000;29;20522;-83
2022/02/23 12:52:04;;;;;;;16.65;2.38;;;;;;;;;;4899296;29;20049;-83
2022/02/23 12:54:55;;;;;;;16.92;3.03;;;;;;;;;;4890887;29;20063;-81
2022/02/23 12:57:22;;;;;;;18.23;3.33;;;;;;;;;;4899091;29;20100;-83
2022/02/23 12:59:56;;;;;;;17.02;3.35;;;;;;;;;;4896345;29;20052;-82
2022/02/23 13:02:23;;;;;;;19.63;4.32;;;;;;;;;;4891135;29;20049;-81
2022/02/23 13:04:52;;;;;;;19.48;3.80;;;;;;;;;;4873143;29;20096;-84
2022/02/23 13:07:19;;;;;;;16.20;3.42;;;;;;;;;;4885952;29;20080;-82
2022/02/23 13:09:47;;;;;;;15.43;2.92;;;;;;;;;;4883671;29;20052;-83
2022/02/23 13:12:17;;;;;;;15.63;2.88;;;;;;;;;;4889805;29;20127;-84
2022/02/23 13:14:47;;;;;;;17.45;2.72;;;;;;;;;;4885746;29;20601;-84
2022/02/23 13:17:19;;;;;;;14.18;3.17;;;;;;;;;;4869937;29;20133;-83
2022/02/23 13:19:46;;;;;;;18.27;2.75;;;;;;;;;;4889657;29;20112;-85
2022/02/23 13:22:23;;;;;;;17.02;3.58;;;;;;;;;;4887849;29;20057;-84
2022/02/23 13:24:51;;;;;;;11.63;2.72;;;;;;;;;;4884464;29;20049;-83
2022/02/23 13:27:22;;;;;;;16.45;3.28;;;;;;;;;;4886346;29;20037;-83
2022/02/23 13:29:52;;;;;;;16.77;2.83;;;;;;;;;;4887573;29;20525;-83
2022/02/23 13:32:21;;;;;;;18.67;3.00;;;;;;;;;;4868533;29;20540;-82
2022/02/23 13:34:52;;;;;;;15.88;2.13;;;;;;;;;;4891019;29;20124;-82
2022/02/23 13:37:28;;;;;;;13.23;2.40;;;;;;;;;;4892449;29;20066;-83
2022/02/23 13:40:04;;;;;;;13.13;2.60;;;;;;;;;;4894430;29;20044;-82
2022/02/23 13:43:00;;;;;;;17.20;2.60;;;;;;;;;;4895139;29;20067;-84
2022/02/23 13:45:31;;;;;;;16.25;2.50;;;;;;;;;;4897375;29;20051;-83
2022/02/23 13:48:00;;;;;;;14.38;2.40;;;;;;;;;;4892724;29;20070;-85
2022/02/23 13:50:34;;;;;;;13.85;2.72;;;;;;;;;;4895142;29;20048;-83
2022/02/23 13:53:04;;;;;;;13.82;2.60;;;;;;;;;;4893542;29;20052;-84
2022/02/23 13:55:36;;;;;;;16.45;2.80;;;;;;;;;;4898004;29;20051;-84
2022/02/23 13:58:12;;;;;;;13.23;2.80;;;;;;;;;;4880452;29;20072;-84
2022/02/23 14:00:47;;;;;;;15.90;2.72;;;;;;;;;;4888154;29;20048;-87
2022/02/23 14:03:18;;;;;;;18.67;2.90;;;;;;;;;;4875578;29;20056;-84
2022/02/23 14:06:01;;;;;;;14.32;2.70;;;;;;;;;;4893827;29;20101;-85
2022/02/23 14:08:41;;;;;;;15.75;2.38;;;;;;;;;;4876379;29;20056;-83
2022/02/23 14:11:22;;;;;;;14.15;2.58;;;;;;;;;;4877657;29;20058;-85
2022/02/23 14:13:52;;;;;;;18.38;2.97;;;;;;;;;;4896455;29;20048;-84
2022/02/23 14:16:30;;;;;;;12.63;2.53;;;;;;;;;;4902176;29;20060;-84
2022/02/23 14:18:57;;;;;;;18.83;2.70;;;;;;;;;;4906426;29;20087;-85
2022/02/23 14:21:24;;;;;;;16.02;2.75;;;;;;;;;;4893229;29;20060;-85
2022/02/23 14:24:01;;;;;;;20.50;3.00;;;;;;;;;;4900688;29;20060;-83
2022/02/23 14:26:28;;;;;;;18.27;2.28;;;;;;;;;;4911293;29;20044;-83
2022/02/23 14:29:01;;;;;;;17.42;3.63;;;;;;;;;;4910271;29;20083;-87
2022/02/23 14:31:42;;;;;;;15.93;3.53;;;;;;;;;;4913132;29;20104;-87
2022/02/23 14:34:23;;;;;;;19.73;3.22;;;;;;;;;;4914152;29;20119;-86
2022/02/23 14:36:52;;;;;;;17.23;2.63;;;;;;;;;;4914678;29;20052;-87
2022/02/23 14:39:20;;;;;;;15.73;2.45;;;;;;;;;;4904796;29;20049;-89
2022/02/23 14:41:48;;;;;;;;;;;;;;;;;;4924601;29;20588;-88
2022/02/23 14:44:15;;;;;;;19.33;2.95;;;;;;;;;;4925036;29;19927;-84
2022/02/23 14:46:42;;;;;;;10.77;2.78;;;;;;;;;;4923466;29;20613;-89
2022/02/23 14:49:09;;;;;;;12.30;2.63;;;;;;;;;;4914283;29;20074;-90
2022/02/23 14:51:36;;;;;;;17.25;2.88;;;;;;;;;;4902987;29;20099;-87
2022/02/23 14:54:03;;;;;;;20.80;4.22;;;;;;;;;;4906034;29;20059;-88
2022/02/23 14:56:30;;;;;;;18.15;2.80;;;;;;;;;;4913348;29;20497;-86
2022/02/23 14:58:57;;;;;;;13.60;2.60;;;;;;;;;;4912518;29;20117;-86
2022/02/23 15:01:26;;;;;;;17.05;2.72;;;;;;;;;;4911456;29;20565;-85
2022/02/23 15:03:53;;;;;;;13.77;2.97;;;;;;;;;;4895308;29;20108;-86
2022/02/23 15:06:20;;;;;;;22.50;3.05;;;;;;;;;;4911122;29;20048;-85
2022/02/23 15:08:48;;;;;;;16.70;3.05;;;;;;;;;;4892403;29;20060;-86
2022/02/23 15:11:17;;;;;;;28.20;3.67;;;;;;;;;;4911398;29;20052;-86
2022/02/23 15:13:44;;;;;;;18.98;3.17;;;;;;;;;;4911883;29;20477;-86
2022/02/23 15:16:12;;;;;;;18.88;2.83;;;;;;;;;;4897140;29;20580;-86
2022/02/23 15:18:39;;;;;;;19.52;3.40;;;;;;;;;;4912032;29;20108;-85
2022/02/23 15:21:07;;;;;;;21.42;3.75;;;;;;;;;;4898119;29;20112;-86
2022/02/23 15:23:34;;;;;;;18.58;3.13;;;;;;;;;;4906293;29;20095;-84
2022/02/23 15:26:01;;;;;;;15.30;2.60;;;;;;;;;;4892973;29;20057;-85
2022/02/23 15:28:28;;;;;;;18.98;2.97;;;;;;;;;;4894740;29;20055;-85
2022/02/23 15:30:55;;;;;;;23.00;3.10;;;;;;;;;;4891532;29;20049;-84
2022/02/23 15:33:22;;;;;;;19.02;3.17;;;;;;;;;;4879514;29;20109;-84
2022/02/23 15:35:48;;;;;;;15.70;3.00;;;;;;;;;;4904607;29;20112;-85
2022/02/23 15:38:15;;;;;;;19.55;3.55;;;;;;;;;;4898616;29;20092;-85
2022/02/23 15:40:42;;;;;;;24.77;4.57;;;;;;;;;;4893558;29;20053;-85
2022/02/23 15:43:12;;;;;;;25.73;3.72;;;;;;;;;;4893968;29;20057;-85
2022/02/23 15:45:41;;;;;;;15.30;3.10;;;;;;;;;;4903312;29;20510;-85
2022/02/23 15:48:09;;;;;;;16.23;2.83;;;;;;;;;;4881931;29;20049;-85
2022/02/23 15:50:36;;;;;;;27.50;4.03;;;;;;;;;;4899360;29;20055;-86
2022/02/23 15:53:03;;;;;;;18.02;3.08;;;;;;;;;;4899954;29;20056;-87
2022/02/23 15:55:32;;;;;;;19.70;3.33;;;;;;;;;;4891181;29;20052;-86
2022/02/23 15:57:58;;;;;;;14.50;2.60;;;;;;;;;;4892457;29;20057;-85
2022/02/23 16:00:25;;;;;;;20.85;3.53;;;;;;;;;;4900062;29;20091;-86
2022/02/23 16:02:53;;;;;;;16.75;3.15;;;;;;;;;;4892808;29;20048;-87
2022/02/23 16:05:20;;;;;;;24.65;3.40;;;;;;;;;;4895788;29;20048;-85
2022/02/23 16:07:47;;;;;;;12.65;3.05;;;;;;;;;;4876798;29;20059;-85
2022/02/23 16:10:14;;;;;;;17.10;3.10;;;;;;;;;;4874299;29;20068;-85
2022/02/23 16:12:40;;;;;;;22.73;2.75;;;;;;;;;;4897571;29;20104;-86
2022/02/23 16:15:07;;;;;;;14.23;2.85;;;;;;;;;;4880314;29;20056;-85
2022/02/23 16:17:35;;;;;;;22.00;3.28;;;;;;;;;;4892157;29;20061;-84
2022/02/23 16:20:23;;;;;;;19.38;2.92;;;;;;;;;;4889133;29;20156;-84
2022/02/23 16:22:50;;;;;;;15.30;3.03;;;;;;;;;;4888506;29;20100;-84
2022/02/23 16:25:19;;;;;;;;;;;;;;;;;;4889892;29;20057;-85
2022/02/23 16:27:46;;;;;;;22.52;2.95;;;;;;;;;;4890210;29;20396;-84
2022/02/23 16:30:12;;;;;;;19.13;3.72;;;;;;;;;;4890116;29;20964;-85
2022/02/23 16:32:40;;;;;;;17.05;3.17;;;;;;;;;;4890891;29;20840;-84
2022/02/23 16:35:07;;;;;;;20.48;3.13;;;;;;;;;;4889679;29;20360;-84
2022/02/23 16:37:34;;;;;;;17.52;3.03;;;;;;;;;;4890061;29;20096;-83
2022/02/23 16:40:06;;;;;;;20.63;3.03;;;;;;;;;;4889708;29;20061;-84
2022/02/23 16:42:33;;;;;;;16.80;3.55;;;;;;;;;;4890101;29;20098;-85
2022/02/23 16:45:00;;;;;;;25.65;3.83;;;;;;;;;;4877413;29;20048;-85
2022/02/23 16:47:27;;;;;;;25.95;3.63;;;;;;;;;;4890722;29;20517;-85
2022/02/23 16:49:54;;;;;;;27.05;3.15;;;;;;;;;;4889711;29;20439;-87
2022/02/23 16:52:23;;;;;;;17.90;2.70;;;;;;;;;;4889595;29;20052;-85
2022/02/23 16:54:50;;;;;;;17.60;3.50;;;;;;;;;;4890476;29;20053;-85
2022/02/23 16:57:17;;;;;;;26.90;3.35;;;;;;;;;;4873001;29;20112;-84
2022/02/23 16:59:43;;;;;;;24.27;3.78;;;;;;;;;;4890800;29;20053;-85
2022/02/23 17:02:12;;;;;;;20.75;3.20;;;;;;;;;;4872845;29;20164;-82
2022/02/23 17:04:39;;;;;;;23.88;3.50;;;;;;;;;;4890437;29;20486;-83
2022/02/23 17:07:06;;;;;;;22.15;3.13;;;;;;;;;;4889040;29;20539;-83
2022/02/23 17:09:35;;;;;;;24.27;3.95;;;;;;;;;;4893625;29;20108;-85
2022/02/23 17:12:02;;;;;;;17.45;3.40;;;;;;;;;;4894153;29;20135;-85
2022/02/23 17:14:29;;;;;;;23.67;4.70;;;;;;;;;;4877597;29;20153;-86
2022/02/23 17:16:56;;;;;;;27.17;4.88;;;;;;;;;;4878957;29;20124;-84
2022/02/23 17:19:22;;;;;;;27.33;4.78;;;;;;;;;;4894780;29;20154;-85
2022/02/23 17:21:49;;;;;;;27.90;4.50;;;;;;;;;;4893598;29;20049;-84
2022/02/23 17:24:16;;;;;;;34.15;5.93;;;;;;;;;;4893527;29;20076;-84
2022/02/23 17:26:42;;;;;;;33.53;5.82;;;;;;;;;;4894427;29;20090;-84
2022/02/23 17:29:09;;;;;;;25.92;5.72;;;;;;;;;;4902953;29;20675;-85
2022/02/23 17:31:36;;;;;;;28.38;5.85;;;;;;;;;;4885629;29;20095;-85
2022/02/23 17:34:06;;;;;;;28.02;5.82;;;;;;;;;;4892999;29;20099;-83
2022/02/23 17:36:33;;;;;;;26.52;6.15;;;;;;;;;;4879006;29;20048;-85
2022/02/23 17:39:00;;;;;;;36.53;5.28;;;;;;;;;;4893758;29;20525;-84
2022/02/23 17:41:26;;;;;;;39.85;8.27;;;;;;;;;;4894107;29;20064;-85
2022/02/23 17:43:53;;;;;;;31.13;8.55;;;;;;;;;;4907431;29;20545;-84
2022/02/23 17:46:20;;;;;;;27.60;6.85;;;;;;;;;;4902968;29;20044;-85
2022/02/23 17:48:48;;;;;;;;;;;;;;;;;;4905812;29;20588;-85
2022/02/23 17:51:15;;;;;;;26.98;8.43;;;;;;;;;;4908356;29;20340;-85
2022/02/23 17:53:42;;;;;;;31.25;6.78;;;;;;;;;;4907378;29;20052;-85
2022/02/23 17:56:08;;;;;;;37.65;8.10;;;;;;;;;;4894061;29;20076;-85
2022/02/23 17:58:35;;;;;;;32.88;6.63;;;;;;;;;;4893825;29;20525;-85
2022/02/23 18:01:02;;;;;;;39.45;9.55;;;;;;;;;;4894294;29;20058;-85
2022/02/23 18:03:30;;;;;;;34.15;11.90;;;;;;;;;;4906865;29;20146;-86
2022/02/23 18:06:04;;;;;;;30.30;6.68;;;;;;;;;;4905652;29;20048;-84
2022/02/23 18:08:31;;;;;;;45.33;19.10;;;;;;;;;;4904931;29;20099;-86
2022/02/23 18:10:58;;;;;;;41.30;14.18;;;;;;;;;;4895584;29;20056;-86
2022/02/23 18:13:27;;;;;;;58.38;22.88;;;;;;;;;;4894779;29;20490;-85
2022/02/23 18:15:54;;;;;;;78.32;29.30;;;;;;;;;;4874061;29;20506;-86
2022/02/23 18:18:21;;;;;;;81.35;36.13;;;;;;;;;;4876831;29;20061;-86
2022/02/23 18:20:48;;;;;;;32.42;8.85;;;;;;;;;;4893298;29;20056;-85
2022/02/23 18:23:15;;;;;;;25.50;6.45;;;;;;;;;;4890033;29;20155;-85
2022/02/23 18:25:41;;;;;;;44.85;16.90;;;;;;;;;;4891555;29;20116;-85
2022/02/23 18:28:09;;;;;;;40.22;16.17;;;;;;;;;;4892169;29;21007;-85
2022/02/23 18:30:36;;;;;;;34.50;10.30;;;;;;;;;;4892605;29;20100;-85
2022/02/23 18:33:03;;;;;;;26.90;7.72;;;;;;;;;;4891000;29;20104;-85
2022/02/23 18:35:30;;;;;;;27.40;7.80;;;;;;;;;;4893081;29;20060;-85
2022/02/23 18:37:57;;;;;;;36.45;10.18;;;;;;;;;;4890784;29;20045;-85
2022/02/23 18:40:23;;;;;;;30.30;8.27;;;;;;;;;;4891582;29;20525;-84
2022/02/23 18:42:50;;;;;;;25.95;6.03;;;;;;;;;;4885788;29;20087;-84
2022/02/23 18:45:17;;;;;;;26.30;5.15;;;;;;;;;;4891397;29;20526;-85
2022/02/23 18:47:43;;;;;;;24.08;4.45;;;;;;;;;;4890835;29;20084;-85
2022/02/23 18:50:13;;;;;;;26.45;5.93;;;;;;;;;;4891011;29;20060;-84
2022/02/23 18:52:41;;;;;;;29.38;6.30;;;;;;;;;;4888625;29;20143;-83
2022/02/23 18:55:10;;;;;;;35.20;8.75;;;;;;;;;;4890521;29;20052;-84
2022/02/23 18:57:42;;;;;;;28.70;6.38;;;;;;;;;;4887346;29;20052;-84
2022/02/23 19:00:12;;;;;;;34.47;7.50;;;;;;;;;;4891593;29;20057;-83
2022/02/23 19:02:39;;;;;;;37.90;8.07;;;;;;;;;;4893358;29;20051;-83
2022/02/23 19:05:07;;;;;;;62.28;24.15;;;;;;;;;;4890095;29;20091;-83
2022/02/23 19:07:34;;;;;;;70.60;21.25;;;;;;;;;;4892265;29;20057;-85
2022/02/23 19:10:07;;;;;;;43.38;12.65;;;;;;;;;;4891584;29;20056;-84
2022/02/23 19:12:33;;;;;;;32.65;5.68;;;;;;;;;;4890955;29;20120;-82
2022/02/23 19:15:00;;;;;;;32.42;5.88;;;;;;;;;;4891180;29;20060;-84
2022/02/23 19:17:27;;;;;;;36.90;6.53;;;;;;;;;;4890987;29;20072;-82
2022/02/23 19:19:54;;;;;;;33.65;7.65;;;;;;;;;;4892470;29;20562;-83
2022/02/23 19:22:23;;;;;;;22.48;4.63;;;;;;;;;;4890121;29;20048;-84
2022/02/23 19:24:50;;;;;;;29.90;5.45;;;;;;;;;;4892020;29;20096;-83
2022/02/23 19:27:17;;;;;;;28.10;4.65;;;;;;;;;;4890656;29;20721;-83
2022/02/23 19:29:44;;;;;;;22.33;4.07;;;;;;;;;;4893101;29;20057;-83
2022/02/23 19:32:11;;;;;;;27.63;4.70;;;;;;;;;;4885528;29;20148;-84
2022/02/23 19:34:37;;;;;;;35.20;6.53;;;;;;;;;;4890844;29;20115;-84
2022/02/23 19:37:07;;;;;;;30.35;4.95;;;;;;;;;;4889294;29;20057;-83
2022/02/23 19:39:33;;;;;;;31.80;4.22;;;;;;;;;;4891350;29;20049;-85
2022/02/23 19:42:00;;;;;;;30.02;3.90;;;;;;;;;;4890172;29;20492;-85
2022/02/23 19:44:27;;;;;;;29.20;5.65;;;;;;;;;;4890811;29;20048;-87
2022/02/23 19:46:54;;;;;;;27.65;5.45;;;;;;;;;;4889868;29;20433;-86
2022/02/23 19:49:21;;;;;;;29.85;5.10;;;;;;;;;;4884974;29;20578;-86
2022/02/23 19:51:48;;;;;;;26.77;5.38;;;;;;;;;;4890162;29;20137;-84
2022/02/23 19:54:14;;;;;;;33.03;5.82;;;;;;;;;;4890429;29;20756;-83
2022/02/23 19:56:41;;;;;;;25.98;5.32;;;;;;;;;;4891196;29;20048;-83
2022/02/23 19:59:08;;;;;;;34.03;6.20;;;;;;;;;;4890504;29;20060;-83
2022/02/23 20:01:37;;;;;;;32.28;6.07;;;;;;;;;;4889639;29;20076;-84
2022/02/23 20:04:04;;;;;;;39.85;6.57;;;;;;;;;;4889970;29;20425;-83
2022/02/23 20:06:31;;;;;;;40.03;6.38;;;;;;;;;;4891303;29;20048;-84
2022/02/23 20:08:58;;;;;;;40.42;7.22;;;;;;;;;;4890401;29;20072;-84
2022/02/23 20:11:24;;;;;;;40.88;6.22;;;;;;;;;;4891891;29;20112;-84
2022/02/23 20:13:55;;;;;;;33.42;6.57;;;;;;;;;;4891104;29;20108;-84
2022/02/23 20:16:22;;;;;;;29.33;5.68;;;;;;;;;;4889310;29;20068;-84
2022/02/23 20:18:49;;;;;;;44.38;7.25;;;;;;;;;;4883662;29;20055;-81
2022/02/23 20:21:16;;;;;;;31.77;6.20;;;;;;;;;;4871452;29;20049;-83
2022/02/23 20:23:46;;;;;;;51.17;6.43;;;;;;;;;;4862247;29;20517;-82
2022/02/23 20:26:12;;;;;;;41.38;6.30;;;;;;;;;;4870950;29;20049;-84
2022/02/23 20:28:39;;;;;;;44.08;6.88;;;;;;;;;;4871665;29;20303;-83
2022/02/23 20:31:07;;;;;;;41.03;6.78;;;;;;;;;;4878624;29;20191;-83
2022/02/23 20:33:34;;;;;;;45.40;8.18;;;;;;;;;;4879765;29;20057;-82
2022/02/23 20:36:01;;;;;;;57.05;7.10;;;;;;;;;;4875745;29;20502;-83
2022/02/23 20:38:27;;;;;;;50.45;8.70;;;;;;;;;;4864757;29;20053;-83
2022/02/23 20:40:56;;;;;;;44.53;7.93;;;;;;;;;;4873284;29;20077;-84
2022/02/23 20:43:24;;;;;;;46.90;7.32;;;;;;;;;;4874811;29;20057;-83
2022/02/23 20:45:51;;;;;;;47.17;7.18;;;;;;;;;;4876542;29;20061;-83
2022/02/23 20:48:19;;;;;;;31.10;6.07;;;;;;;;;;4887506;29;20049;-83
2022/02/23 20:50:46;;;;;;;43.83;5.83;;;;;;;;;;4881124;29;20056;-82
2022/02/23 20:53:13;;;;;;;46.22;6.82;;;;;;;;;;4875471;29;20640;-83
2022/02/23 20:55:39;;;;;;;40.30;6.35;;;;;;;;;;4882045;29;20127;-83
2022/02/23 20:58:06;;;;;;;45.38;7.72;;;;;;;;;;4876653;29;20085;-84
2022/02/23 21:00:33;;;;;;;43.60;7.22;;;;;;;;;;4877698;29;20555;-84
2022/02/23 21:03:01;;;;;;;60.33;10.30;;;;;;;;;;4881221;29;20064;-85
2022/02/23 21:05:30;;;;;;;43.47;7.72;;;;;;;;;;4876759;29;20052;-84